sensor_id;sensor_type;location;lat;lon;timestamp;pressure;altitude;pressure_sealevel;temperature;humidity
59951;BME280;45812;53.540;9.774;2022-12-05T00:00:12;102046.75;;;5.42;100.00
59951;BME280;45812;53.540;9.774;2022-12-05T00:02:38;102054.75;;;5.40;100.00
59951;BME280;45812;53.540;9.774;2022-12-05T00:05:03;102057.41;;;5.40;100.00
59951;BME280;45812;53.540;9.774;2022-12-05T00:07:29;102060.09;;;5.39;100.00
59951;BME280;45812;53.540;9.774;2022-12-05T00:09:54;102046.16;;;5.37;100.00
59951;BME280;45812;53.540;9.774;2022-12-05T00:12:19;102047.84;;;5.38;100.00
59951;BME280;45812;53.540;9.774;2022-12-05T00:14:45;102047.78;;;5.39;100.00
59951;BME280;45812;53.540;9.774;2022-12-05T00:17:10;102043.41;;;5.38;100.00
59951;BME280;45812;53.540;9.774;2022-12-05T00:19:35;102037.22;;;5.39;100.00
59951;BME280;45812;53.540;9.774;2022-12-05T00:22:00;102037.97;;;5.41;100.00
59951;BME280;45812;53.540;9.774;2022-12-05T00:24:26;102023.16;;;5.39;100.00
59951;BME280;45812;53.540;9.774;2022-12-05T00:26:51;102009.09;;;5.38;100.00
59951;BME280;45812;53.540;9.774;2022-12-05T00:29:16;102013.72;;;5.35;100.00
59951;BME280;45812;53.540;9.774;2022-12-05T00:31:41;102019.88;;;5.35;100.00
59951;BME280;45812;53.540;9.774;2022-12-05T00:34:07;102023.25;;;5.37;100.00
59951;BME280;45812;53.540;9.774;2022-12-05T00:36:33;102016.84;;;5.41;100.00
59951;BME280;45812;53.540;9.774;2022-12-05T00:39:01;102025.63;;;5.42;100.00
59951;BME280;45812;53.540;9.774;2022-12-05T00:41:27;102027.41;;;5.41;100.00
59951;BME280;45812;53.540;9.774;2022-12-05T00:43:54;102022.03;;;5.43;100.00
59951;BME280;45812;53.540;9.774;2022-12-05T00:46:21;102016.66;;;5.44;100.00
59951;BME280;45812;53.540;9.774;2022-12-05T00:48:47;102021.94;;;5.44;100.00
59951;BME280;45812;53.540;9.774;2022-12-05T00:51:15;102026.06;;;5.48;100.00
59951;BME280;45812;53.540;9.774;2022-12-05T00:53:41;102023.41;;;5.48;100.00
59951;BME280;45812;53.540;9.774;2022-12-05T00:56:19;102016.44;;;5.47;100.00
59951;BME280;45812;53.540;9.774;2022-12-05T00:58:45;102020.88;;;5.47;100.00
59951;BME280;45812;53.540;9.774;2022-12-05T01:01:26;102022.47;;;5.50;100.00
59951;BME280;45812;53.540;9.774;2022-12-05T01:03:55;102017.38;;;5.46;100.00
59951;BME280;45812;53.540;9.774;2022-12-05T01:06:22;102027.09;;;5.46;100.00
59951;BME280;45812;53.540;9.774;2022-12-05T01:08:47;102014.53;;;5.50;100.00
59951;BME280;45812;53.540;9.774;2022-12-05T01:11:15;102029.22;;;5.54;100.00
59951;BME280;45812;53.540;9.774;2022-12-05T01:13:41;102014.34;;;5.53;100.00
59951;BME280;45812;53.540;9.774;2022-12-05T01:16:13;102008.84;;;5.56;100.00
59951;BME280;45812;53.540;9.774;2022-12-05T01:18:39;102016.88;;;5.54;100.00
59951;BME280;45812;53.540;9.774;2022-12-05T01:21:05;102022.06;;;5.56;100.00
59951;BME280;45812;53.540;9.774;2022-12-05T01:23:30;102013.38;;;5.54;100.00
59951;BME280;45812;53.540;9.774;2022-12-05T01:25:55;102015.06;;;5.55;100.00
59951;BME280;45812;53.540;9.774;2022-12-05T01:28:21;102016.78;;;5.56;100.00
59951;BME280;45812;53.540;9.774;2022-12-05T01:30:47;102015.94;;;5.55;100.00
59951;BME280;45812;53.540;9.774;2022-12-05T01:33:13;102019.41;;;5.56;100.00
59951;BME280;45812;53.540;9.774;2022-12-05T01:35:40;102012.34;;;5.56;100.00
59951;BME280;45812;53.540;9.774;2022-12-05T01:38:05;102007.91;;;5.57;100.00
59951;BME280;45812;53.540;9.774;2022-12-05T01:40:33;102004.13;;;5.61;100.00
59951;BME280;45812;53.540;9.774;2022-12-05T01:42:59;102000.53;;;5.62;100.00
59951;BME280;45812;53.540;9.774;2022-12-05T01:48:02;102004.56;;;5.67;100.00
59951;BME280;45812;53.540;9.774;2022-12-05T01:50:29;102004.66;;;5.66;100.00
59951;BME280;45812;53.540;9.774;2022-12-05T01:52:54;102006.34;;;5.67;100.00
59951;BME280;45812;53.540;9.774;2022-12-05T01:55:19;101999.38;;;5.66;100.00
59951;BME280;45812;53.540;9.774;2022-12-05T01:57:45;102002.13;;;5.64;100.00
59951;BME280;45812;53.540;9.774;2022-12-05T02:00:15;102002.03;;;5.66;100.00
59951;BME280;45812;53.540;9.774;2022-12-05T02:02:44;101996.75;;;5.66;100.00
59951;BME280;45812;53.540;9.774;2022-12-05T02:05:15;101998.53;;;5.65;100.00
59951;BME280;45812;53.540;9.774;2022-12-05T02:07:41;101992.63;;;5.62;100.00
59951;BME280;45812;53.540;9.774;2022-12-05T02:10:07;101989.88;;;5.63;100.00
59951;BME280;45812;53.540;9.774;2022-12-05T02:12:33;101988.72;;;5.67;100.00
59951;BME280;45812;53.540;9.774;2022-12-05T02:18:08;101983.53;;;5.66;100.00
59951;BME280;45812;53.540;9.774;2022-12-05T02:21:04;101978.25;;;5.66;100.00
59951;BME280;45812;53.540;9.774;2022-12-05T02:29:29;101979.94;;;5.67;100.00
59951;BME280;45812;53.540;9.774;2022-12-05T02:32:09;101974.56;;;5.68;100.00
59951;BME280;45812;53.540;9.774;2022-12-05T02:34:52;101975.50;;;5.67;100.00
59951;BME280;45812;53.540;9.774;2022-12-05T02:37:28;101975.59;;;5.66;100.00
59951;BME280;45812;53.540;9.774;2022-12-05T02:40:16;101981.22;;;5.61;100.00
59951;BME280;45812;53.540;9.774;2022-12-05T02:42:50;101973.59;;;5.69;100.00
59951;BME280;45812;53.540;9.774;2022-12-05T02:45:19;101968.75;;;5.76;100.00
59951;BME280;45812;53.540;9.774;2022-12-05T02:47:50;101971.31;;;5.77;100.00
59951;BME280;45812;53.540;9.774;2022-12-05T02:50:20;101965.19;;;5.77;100.00
59951;BME280;45812;53.540;9.774;2022-12-05T02:52:47;101964.97;;;5.80;100.00
59951;BME280;45812;53.540;9.774;2022-12-05T02:55:14;101956.09;;;5.81;100.00
59951;BME280;45812;53.540;9.774;2022-12-05T02:57:44;101960.31;;;5.84;100.00
59951;BME280;45812;53.540;9.774;2022-12-05T03:00:12;101963.06;;;5.82;100.00
59951;BME280;45812;53.540;9.774;2022-12-05T03:02:38;101961.47;;;5.80;100.00
59951;BME280;45812;53.540;9.774;2022-12-05T03:08:11;101951.03;;;5.78;100.00
59951;BME280;45812;53.540;9.774;2022-12-05T03:10:41;101955.47;;;5.77;100.00
59951;BME280;45812;53.540;9.774;2022-12-05T03:13:12;101953.94;;;5.73;100.00
59951;BME280;45812;53.540;9.774;2022-12-05T03:15:45;101953.84;;;5.75;100.00
59951;BME280;45812;53.540;9.774;2022-12-05T03:18:16;101952.81;;;5.77;100.00
59951;BME280;45812;53.540;9.774;2022-12-05T03:20:58;101948.66;;;5.73;100.00
59951;BME280;45812;53.540;9.774;2022-12-05T03:23:27;101952.91;;;5.76;100.00
59951;BME280;45812;53.540;9.774;2022-12-05T03:29:19;101953.09;;;5.73;100.00
59951;BME280;45812;53.540;9.774;2022-12-05T03:34:57;101948.16;;;5.81;100.00
59951;BME280;45812;53.540;9.774;2022-12-05T03:37:37;101944.78;;;5.79;100.00
59951;BME280;45812;53.540;9.774;2022-12-05T03:43:09;101944.44;;;5.71;100.00
59951;BME280;45812;53.540;9.774;2022-12-05T03:46:43;101952.25;;;5.72;100.00
59951;BME280;45812;53.540;9.774;2022-12-05T03:48:58;101940.47;;;5.78;100.00
59951;BME280;45812;53.540;9.774;2022-12-05T03:51:30;101941.41;;;5.77;100.00
59951;BME280;45812;53.540;9.774;2022-12-05T03:54:02;101944.78;;;5.79;100.00
59951;BME280;45812;53.540;9.774;2022-12-05T03:56:42;101941.94;;;5.82;100.00
59951;BME280;45812;53.540;9.774;2022-12-05T04:01:58;101949.44;;;5.88;100.00
59951;BME280;45812;53.540;9.774;2022-12-05T04:04:38;101947.56;;;5.90;100.00
59951;BME280;45812;53.540;9.774;2022-12-05T04:07:09;101952.91;;;5.89;100.00
59951;BME280;45812;53.540;9.774;2022-12-05T04:09:56;101953.75;;;5.89;100.00
59951;BME280;45812;53.540;9.774;2022-12-05T04:12:26;101956.97;;;5.94;100.00
59951;BME280;45812;53.540;9.774;2022-12-05T04:14:56;101955.94;;;5.97;100.00
59951;BME280;45812;53.540;9.774;2022-12-05T04:17:31;101955.28;;;5.93;100.00
59951;BME280;45812;53.540;9.774;2022-12-05T04:20:14;101958.75;;;5.94;100.00
59951;BME280;45812;53.540;9.774;2022-12-05T04:23:01;101960.56;;;5.93;100.00
59951;BME280;45812;53.540;9.774;2022-12-05T04:25:38;101956.22;;;5.92;100.00
59951;BME280;45812;53.540;9.774;2022-12-05T04:28:27;101956.41;;;5.89;100.00
59951;BME280;45812;53.540;9.774;2022-12-05T04:31:05;101957.81;;;5.95;100.00
59951;BME280;45812;53.540;9.774;2022-12-05T04:33:47;101955.28;;;5.93;100.00
59951;BME280;45812;53.540;9.774;2022-12-05T04:36:28;101951.50;;;5.97;100.00
59951;BME280;45812;53.540;9.774;2022-12-05T04:39:13;101957.91;;;5.93;100.00
59951;BME280;45812;53.540;9.774;2022-12-05T04:41:40;101955.75;;;5.73;100.00
59951;BME280;45812;53.540;9.774;2022-12-05T04:44:11;101949.03;;;5.94;100.00
59951;BME280;45812;53.540;9.774;2022-12-05T04:46:40;101951.78;;;5.93;100.00
59951;BME280;45812;53.540;9.774;2022-12-05T04:49:09;101956.22;;;5.92;100.00
59951;BME280;45812;53.540;9.774;2022-12-05T04:51:37;101957.91;;;5.93;100.00
59951;BME280;45812;53.540;9.774;2022-12-05T04:54:14;101955.38;;;5.92;100.00
59951;BME280;45812;53.540;9.774;2022-12-05T04:56:43;101955.38;;;5.92;100.00
59951;BME280;45812;53.540;9.774;2022-12-05T04:59:10;101953.59;;;5.92;100.00
59951;BME280;45812;53.540;9.774;2022-12-05T05:01:40;101954.63;;;5.90;100.00
59951;BME280;45812;53.540;9.774;2022-12-05T05:04:14;101947.84;;;5.86;100.00
59951;BME280;45812;53.540;9.774;2022-12-05T05:06:41;101945.75;;;5.78;100.00
59951;BME280;45812;53.540;9.774;2022-12-05T05:09:06;101952.91;;;5.76;100.00
59951;BME280;45812;53.540;9.774;2022-12-05T05:11:33;101957.34;;;5.75;100.00
59951;BME280;45812;53.540;9.774;2022-12-05T05:13:59;101958.75;;;5.81;100.00
59951;BME280;45812;53.540;9.774;2022-12-05T05:16:28;101954.41;;;5.80;100.00
59951;BME280;45812;53.540;9.774;2022-12-05T05:18:53;101949.66;;;5.85;100.00
59951;BME280;45812;53.540;9.774;2022-12-05T05:21:28;101948.91;;;5.83;100.00
59951;BME280;45812;53.540;9.774;2022-12-05T05:23:54;101947.00;;;5.85;100.00
59951;BME280;45812;53.540;9.774;2022-12-05T05:26:20;101947.75;;;5.87;100.00
59951;BME280;45812;53.540;9.774;2022-12-05T05:28:46;101937.59;;;5.81;100.00
59951;BME280;45812;53.540;9.774;2022-12-05T05:31:12;101932.09;;;5.84;100.00
59951;BME280;45812;53.540;9.774;2022-12-05T05:33:38;101931.78;;;5.89;100.00
59951;BME280;45812;53.540;9.774;2022-12-05T05:36:12;101921.88;;;5.92;100.00
59951;BME280;45812;53.540;9.774;2022-12-05T05:38:39;101929.91;;;5.91;100.00
59951;BME280;45812;53.540;9.774;2022-12-05T05:41:10;101935.09;;;5.92;100.00
59951;BME280;45812;53.540;9.774;2022-12-05T05:43:35;101937.63;;;5.94;100.00
59951;BME280;45812;53.540;9.774;2022-12-05T05:46:02;101947.56;;;5.90;100.00
59951;BME280;45812;53.540;9.774;2022-12-05T05:48:29;101943.84;;;5.93;100.00
59951;BME280;45812;53.540;9.774;2022-12-05T05:50:54;101944.91;;;5.90;100.00
59951;BME280;45812;53.540;9.774;2022-12-05T05:53:19;101949.53;;;5.87;100.00
59951;BME280;45812;53.540;9.774;2022-12-05T05:55:44;101947.00;;;5.85;100.00
59951;BME280;45812;53.540;9.774;2022-12-05T05:58:09;101949.44;;;5.88;100.00
59951;BME280;45812;53.540;9.774;2022-12-05T06:00:35;101945.53;;;5.81;100.00
59951;BME280;45812;53.540;9.774;2022-12-05T06:03:00;101948.56;;;5.75;100.00
59951;BME280;45812;53.540;9.774;2022-12-05T06:05:25;101946.97;;;5.72;100.00
59951;BME280;45812;53.540;9.774;2022-12-05T06:07:53;101944.03;;;5.77;100.00
59951;BME280;45812;53.540;9.774;2022-12-05T06:10:19;101944.78;;;5.79;100.00
59951;BME280;45812;53.540;9.774;2022-12-05T06:12:44;101947.81;;;5.73;100.00
59951;BME280;45812;53.540;9.774;2022-12-05T06:15:09;101942.75;;;5.70;100.00
59951;BME280;45812;53.540;9.774;2022-12-05T06:17:35;101941.78;;;5.71;100.00
59951;BME280;45812;53.540;9.774;2022-12-05T06:20:00;101948.25;;;5.67;100.00
59951;BME280;45812;53.540;9.774;2022-12-05T06:22:25;101945.50;;;5.68;100.00
59951;BME280;45812;53.540;9.774;2022-12-05T06:24:51;101946.13;;;5.72;100.00
59951;BME280;45812;53.540;9.774;2022-12-05T06:27:16;101953.09;;;5.73;100.00
59951;BME280;45812;53.540;9.774;2022-12-05T06:29:41;101951.84;;;5.66;100.00
59951;BME280;45812;53.540;9.774;2022-12-05T06:32:07;101950.88;;;5.67;100.00
59951;BME280;45812;53.540;9.774;2022-12-05T06:34:32;101958.06;;;5.65;100.00
59951;BME280;45812;53.540;9.774;2022-12-05T06:36:59;101958.72;;;5.68;100.00
59951;BME280;45812;53.540;9.774;2022-12-05T06:39:24;101959.56;;;5.69;100.00
59951;BME280;45812;53.540;9.774;2022-12-05T06:41:49;101957.66;;;5.71;100.00
59951;BME280;45812;53.540;9.774;2022-12-05T06:44:15;101960.06;;;5.74;100.00
59951;BME280;45812;53.540;9.774;2022-12-05T06:46:40;101960.06;;;5.74;100.00
59951;BME280;45812;53.540;9.774;2022-12-05T06:49:05;101960.91;;;5.74;100.00
59951;BME280;45812;53.540;9.774;2022-12-05T06:51:31;101966.22;;;5.74;100.00
59951;BME280;45812;53.540;9.774;2022-12-05T06:53:56;101961.59;;;5.78;100.00
59951;BME280;45812;53.540;9.774;2022-12-05T06:56:22;101966.88;;;5.78;100.00
59951;BME280;45812;53.540;9.774;2022-12-05T06:58:48;101959.13;;;5.75;100.00
59951;BME280;45812;53.540;9.774;2022-12-05T07:01:16;101961.97;;;5.72;100.00
59951;BME280;45812;53.540;9.774;2022-12-05T07:04:00;101969.16;;;5.70;100.00
59951;BME280;45812;53.540;9.774;2022-12-05T07:06:26;101964.00;;;5.68;100.00
59951;BME280;45812;53.540;9.774;2022-12-05T07:08:51;101960.91;;;5.62;100.00
59951;BME280;45812;53.540;9.774;2022-12-05T07:11:17;101962.72;;;5.61;100.00
59951;BME280;45812;53.540;9.774;2022-12-05T07:13:42;101963.66;;;5.60;100.00
59951;BME280;45812;53.540;9.774;2022-12-05T07:16:07;101959.34;;;5.59;100.00
59951;BME280;45812;53.540;9.774;2022-12-05T07:18:34;101964.41;;;5.62;100.00
59951;BME280;45812;53.540;9.774;2022-12-05T07:21:05;101961.56;;;5.65;100.00
59951;BME280;45812;53.540;9.774;2022-12-05T07:23:31;101955.63;;;5.62;100.00
59951;BME280;45812;53.540;9.774;2022-12-05T07:25:56;101959.03;;;5.64;100.00
59951;BME280;45812;53.540;9.774;2022-12-05T07:28:22;101960.91;;;5.62;100.00
59951;BME280;45812;53.540;9.774;2022-12-05T07:30:48;101954.06;;;5.59;100.00
59951;BME280;45812;53.540;9.774;2022-12-05T07:33:13;101948.09;;;5.56;100.00
59951;BME280;45812;53.540;9.774;2022-12-05T07:35:38;101956.88;;;5.56;100.00
59951;BME280;45812;53.540;9.774;2022-12-05T07:38:03;101950.84;;;5.54;100.00
59951;BME280;45812;53.540;9.774;2022-12-05T07:40:29;101956.75;;;5.58;100.00
59951;BME280;45812;53.540;9.774;2022-12-05T07:42:54;101949.25;;;5.52;100.00
59951;BME280;45812;53.540;9.774;2022-12-05T07:45:20;101958.78;;;5.54;100.00
59951;BME280;45812;53.540;9.774;2022-12-05T07:47:45;101960.47;;;5.55;100.00
59951;BME280;45812;53.540;9.774;2022-12-05T07:50:11;101950.75;;;5.56;100.00
59951;BME280;45812;53.540;9.774;2022-12-05T07:52:37;101955.91;;;5.57;100.00
59951;BME280;45812;53.540;9.774;2022-12-05T07:55:03;101955.84;;;5.59;100.00
59951;BME280;45812;53.540;9.774;2022-12-05T07:57:29;101955.06;;;5.57;100.00
59951;BME280;45812;53.540;9.774;2022-12-05T07:59:54;101957.72;;;5.57;100.00
59951;BME280;45812;53.540;9.774;2022-12-05T08:02:19;101956.97;;;5.55;100.00
59951;BME280;45812;53.540;9.774;2022-12-05T08:04:45;101952.66;;;5.54;100.00
59951;BME280;45812;53.540;9.774;2022-12-05T08:07:10;101954.34;;;5.55;100.00
59951;BME280;45812;53.540;9.774;2022-12-05T08:09:35;101957.28;;;5.50;100.00
59951;BME280;45812;53.540;9.774;2022-12-05T08:12:00;101956.22;;;5.53;100.00
59951;BME280;45812;53.540;9.774;2022-12-05T08:14:26;101959.94;;;5.50;100.00
59951;BME280;45812;53.540;9.774;2022-12-05T08:16:51;101969.00;;;5.46;100.00
59951;BME280;45812;53.540;9.774;2022-12-05T08:19:16;101969.50;;;5.38;100.00
59951;BME280;45812;53.540;9.774;2022-12-05T08:21:42;101966.78;;;5.40;100.00
59951;BME280;45812;53.540;9.774;2022-12-05T08:24:07;101962.41;;;5.39;100.00
59951;BME280;45812;53.540;9.774;2022-12-05T08:26:34;101967.81;;;5.37;100.00
59951;BME280;45812;53.540;9.774;2022-12-05T08:29:02;101966.09;;;5.36;100.00
59951;BME280;45812;53.540;9.774;2022-12-05T08:31:30;101974.69;;;5.40;100.00
59951;BME280;45812;53.540;9.774;2022-12-05T08:33:57;101966.94;;;5.37;100.00
59951;BME280;45812;53.540;9.774;2022-12-05T08:36:23;101968.84;;;5.35;100.00
59951;BME280;45812;53.540;9.774;2022-12-05T08:38:49;101975.63;;;5.39;100.00
59951;BME280;45812;53.540;9.774;2022-12-05T08:41:16;101980.25;;;5.35;100.00
59951;BME280;45812;53.540;9.774;2022-12-05T08:43:42;101980.38;;;5.34;100.00
59951;BME280;45812;53.540;9.774;2022-12-05T08:46:08;101983.22;;;5.31;100.00
59951;BME280;45812;53.540;9.774;2022-12-05T08:48:34;101980.78;;;5.28;100.00
59951;BME280;45812;53.540;9.774;2022-12-05T08:51:08;101993.13;;;5.27;100.00
59951;BME280;45812;53.540;9.774;2022-12-05T08:53:35;101994.28;;;5.23;100.00
59951;BME280;45812;53.540;9.774;2022-12-05T08:56:04;101997.97;;;5.21;100.00
59951;BME280;45812;53.540;9.774;2022-12-05T08:58:30;101993.59;;;5.20;100.00
59951;BME280;45812;53.540;9.774;2022-12-05T09:01:12;101994.84;;;5.14;100.00
59951;BME280;45812;53.540;9.774;2022-12-05T09:03:39;101996.91;;;5.23;100.00
59951;BME280;45812;53.540;9.774;2022-12-05T09:06:10;101995.75;;;5.27;100.00
59951;BME280;45812;53.540;9.774;2022-12-05T09:08:37;101989.94;;;5.22;100.00
59951;BME280;45812;53.540;9.774;2022-12-05T09:11:07;101997.66;;;5.25;100.00
59951;BME280;45812;53.540;9.774;2022-12-05T09:13:32;101995.22;;;5.22;100.00
59951;BME280;45812;53.540;9.774;2022-12-05T09:15:58;101997.69;;;5.11;100.00
59951;BME280;45812;53.540;9.774;2022-12-05T09:18:23;101994.09;;;5.12;100.00
59951;BME280;45812;53.540;9.774;2022-12-05T09:20:48;102000.88;;;5.16;100.00
59951;BME280;45812;53.540;9.774;2022-12-05T09:23:14;101990.31;;;5.16;100.00
59951;BME280;45812;53.540;9.774;2022-12-05T09:25:39;101997.28;;;5.17;100.00
59951;BME280;45812;53.540;9.774;2022-12-05T09:28:04;101989.38;;;5.17;100.00
59951;BME280;45812;53.540;9.774;2022-12-05T09:30:29;101999.81;;;5.18;100.00
59951;BME280;45812;53.540;9.774;2022-12-05T09:32:55;102003.88;;;5.24;100.00
59951;BME280;45812;53.540;9.774;2022-12-05T09:35:20;102001.34;;;5.23;100.00
59951;BME280;45812;53.540;9.774;2022-12-05T09:37:45;101995.88;;;5.26;100.00
59951;BME280;45812;53.540;9.774;2022-12-05T09:40:16;102000.53;;;5.35;100.00
59951;BME280;45812;53.540;9.774;2022-12-05T09:42:53;102001.47;;;5.34;100.00
59951;BME280;45812;53.540;9.774;2022-12-05T09:45:33;102004.94;;;5.22;100.00
59951;BME280;45812;53.540;9.774;2022-12-05T09:48:10;102001.53;;;5.20;100.00
59951;BME280;45812;53.540;9.774;2022-12-05T09:50:46;102004.66;;;5.12;100.00
59951;BME280;45812;53.540;9.774;2022-12-05T09:53:23;101998.94;;;5.05;100.00
59951;BME280;45812;53.540;9.774;2022-12-05T09:55:55;101995.56;;;5.03;100.00
59951;BME280;45812;53.540;9.774;2022-12-05T10:04:06;101991.03;;;4.91;100.00
59951;BME280;45812;53.540;9.774;2022-12-05T10:06:40;101998.00;;;4.92;100.00
59951;BME280;45812;53.540;9.774;2022-12-05T10:09:19;101991.88;;;4.92;100.00
59951;BME280;45812;53.540;9.774;2022-12-05T10:12:05;101995.03;;;4.84;100.00
59951;BME280;45812;53.540;9.774;2022-12-05T10:17:46;101997.94;;;4.79;100.00
59951;BME280;45812;53.540;9.774;2022-12-05T10:20:18;101988.91;;;4.83;100.00
59951;BME280;45812;53.540;9.774;2022-12-05T10:22:52;101986.81;;;4.89;100.00
59951;BME280;45812;53.540;9.774;2022-12-05T10:25:20;101983.44;;;4.86;100.00
59951;BME280;45812;53.540;9.774;2022-12-05T10:27:50;101988.50;;;4.90;100.00
59951;BME280;45812;53.540;9.774;2022-12-05T10:30:20;101991.16;;;4.90;100.00
59951;BME280;45812;53.540;9.774;2022-12-05T10:35:32;101989.06;;;4.80;100.00
59951;BME280;45812;53.540;9.774;2022-12-05T10:38:02;101987.19;;;4.82;100.00
59951;BME280;45812;53.540;9.774;2022-12-05T10:40:33;101986.25;;;4.83;100.00
59951;BME280;45812;53.540;9.774;2022-12-05T10:43:00;101972.88;;;4.86;100.00
59951;BME280;45812;53.540;9.774;2022-12-05T10:45:25;101984.19;;;4.89;100.00
59951;BME280;45812;53.540;9.774;2022-12-05T10:47:55;101977.84;;;4.91;100.00
59951;BME280;45812;53.540;9.774;2022-12-05T10:52:50;101981.72;;;4.85;100.00
59951;BME280;45812;53.540;9.774;2022-12-05T10:55:17;101976.25;;;4.89;100.00
59951;BME280;45812;53.540;9.774;2022-12-05T10:57:49;101983.03;;;4.93;100.00
59951;BME280;45812;53.540;9.774;2022-12-05T11:00:19;101972.47;;;4.93;100.00
59951;BME280;45812;53.540;9.774;2022-12-05T11:02:46;101968.16;;;4.92;100.00
59951;BME280;45812;53.540;9.774;2022-12-05T11:05:12;101970.69;;;4.93;100.00
59951;BME280;45812;53.540;9.774;2022-12-05T11:10:26;101963.78;;;5.05;100.00
59951;BME280;45812;53.540;9.774;2022-12-05T11:12:56;101964.13;;;5.13;100.00
59951;BME280;45812;53.540;9.774;2022-12-05T11:15:24;101966.56;;;5.16;100.00
59951;BME280;45812;53.540;9.774;2022-12-05T11:17:52;101968.34;;;5.15;100.00
59951;BME280;45812;53.540;9.774;2022-12-05T11:22:44;101955.06;;;5.17;100.00
59951;BME280;45812;53.540;9.774;2022-12-05T11:27:47;101952.56;;;5.28;100.00
59951;BME280;45812;53.540;9.774;2022-12-05T11:32:37;101951.84;;;5.39;100.00
59951;BME280;45812;53.540;9.774;2022-12-05T11:35:23;101951.31;;;5.34;100.00
59951;BME280;45812;53.540;9.774;2022-12-05T11:38:04;101949.16;;;5.40;100.00
59951;BME280;45812;53.540;9.774;2022-12-05T11:40:36;101946.19;;;5.45;100.00
59951;BME280;45812;53.540;9.774;2022-12-05T11:45:51;101946.94;;;5.47;100.00
59951;BME280;45812;53.540;9.774;2022-12-05T11:48:46;101940.38;;;5.40;100.00
59951;BME280;45812;53.540;9.774;2022-12-05T11:51:38;101942.91;;;5.41;100.00
59951;BME280;45812;53.540;9.774;2022-12-05T11:54:37;101934.44;;;5.36;100.00
59951;BME280;45812;53.540;9.774;2022-12-05T12:05:49;101938.97;;;5.34;100.00
59951;BME280;45812;53.540;9.774;2022-12-05T12:08:47;101937.16;;;5.35;100.00
59951;BME280;45812;53.540;9.774;2022-12-05T12:11:26;101929.72;;;5.41;100.00
59951;BME280;45812;53.540;9.774;2022-12-05T12:14:08;101934.47;;;5.49;100.00
59951;BME280;45812;53.540;9.774;2022-12-05T12:22:40;101938.59;;;5.40;100.00
59951;BME280;45812;53.540;9.774;2022-12-05T12:25:16;101936.47;;;5.45;100.00
59951;BME280;45812;53.540;9.774;2022-12-05T12:28:02;101931.94;;;5.47;100.00
59951;BME280;45812;53.540;9.774;2022-12-05T12:30:46;101938.91;;;5.48;100.00
59951;BME280;45812;53.540;9.774;2022-12-05T12:33:38;101937.97;;;5.50;100.00
59951;BME280;45812;53.540;9.774;2022-12-05T12:36:17;101933.00;;;5.45;100.00
59951;BME280;45812;53.540;9.774;2022-12-05T12:39:02;101932.16;;;5.44;100.00
59951;BME280;45812;53.540;9.774;2022-12-05T12:41:49;101932.03;;;5.46;100.00
59951;BME280;45812;53.540;9.774;2022-12-05T12:47:10;101924.84;;;5.48;100.00
59951;BME280;45812;53.540;9.774;2022-12-05T12:49:44;101914.81;;;5.53;100.00
59951;BME280;45812;53.540;9.774;2022-12-05T12:52:16;101923.50;;;5.55;100.00
59951;BME280;45812;53.540;9.774;2022-12-05T12:54:58;101921.38;;;5.47;100.00
59951;BME280;45812;53.540;9.774;2022-12-05T12:58:33;101918.09;;;5.44;100.00
59951;BME280;45812;53.540;9.774;2022-12-05T13:01:00;101916.09;;;5.47;100.00
59951;BME280;45812;53.540;9.774;2022-12-05T13:03:36;101917.03;;;5.46;100.00
59951;BME280;45812;53.540;9.774;2022-12-05T13:06:10;101910.06;;;5.45;100.00
59951;BME280;45812;53.540;9.774;2022-12-05T13:08:51;101916.19;;;5.46;100.00
59951;BME280;45812;53.540;9.774;2022-12-05T13:11:19;101912.25;;;5.39;100.00
59951;BME280;45812;53.540;9.774;2022-12-05T13:13:50;101907.84;;;5.39;100.00
59951;BME280;45812;53.540;9.774;2022-12-05T13:16:27;101904.66;;;5.34;100.00
59951;BME280;45812;53.540;9.774;2022-12-05T13:18:54;101912.03;;;5.29;100.00
59951;BME280;45812;53.540;9.774;2022-12-05T13:21:20;101898.28;;;5.24;100.00
59951;BME280;45812;53.540;9.774;2022-12-05T13:23:49;101906.31;;;5.23;100.00
59951;BME280;45812;53.540;9.774;2022-12-05T13:26:15;101904.91;;;5.17;100.00
59951;BME280;45812;53.540;9.774;2022-12-05T13:28:58;101903.97;;;5.18;100.00
59951;BME280;45812;53.540;9.774;2022-12-05T13:31:43;101907.66;;;5.15;100.00
59951;BME280;45812;53.540;9.774;2022-12-05T13:37:08;101906.81;;;5.15;100.00
59951;BME280;45812;53.540;9.774;2022-12-05T13:39:55;101909.66;;;5.12;100.00
59951;BME280;45812;53.540;9.774;2022-12-05T13:42:40;101910.50;;;5.12;100.00
59951;BME280;45812;53.540;9.774;2022-12-05T13:45:09;101909.56;;;5.13;100.00
59951;BME280;45812;53.540;9.774;2022-12-05T13:48:05;101907.13;;;5.10;100.00
59951;BME280;45812;53.540;9.774;2022-12-05T13:53:36;101908.91;;;5.10;100.00
59951;BME280;45812;53.540;9.774;2022-12-05T13:58:49;101913.25;;;5.11;100.00
59951;BME280;45812;53.540;9.774;2022-12-05T14:08:59;101917.88;;;5.07;100.00
59951;BME280;45812;53.540;9.774;2022-12-05T14:11:24;101910.81;;;5.08;100.00
59951;BME280;45812;53.540;9.774;2022-12-05T14:13:49;101922.94;;;5.10;100.00
59951;BME280;45812;53.540;9.774;2022-12-05T14:19:11;101923.16;;;5.07;100.00
59951;BME280;45812;53.540;9.774;2022-12-05T14:21:40;101914.59;;;5.04;100.00
59951;BME280;45812;53.540;9.774;2022-12-05T14:29:43;101912.13;;;5.01;100.00
59951;BME280;45812;53.540;9.774;2022-12-05T14:32:24;101914.69;;;5.02;100.00
59951;BME280;45812;53.540;9.774;2022-12-05T14:35:00;101912.06;;;5.02;100.00
59951;BME280;45812;53.540;9.774;2022-12-05T14:37:29;101907.91;;;4.98;100.00
59951;BME280;45812;53.540;9.774;2022-12-05T14:39:58;101906.09;;;4.99;100.00
59951;BME280;45812;53.540;9.774;2022-12-05T14:42:43;101907.25;;;4.95;100.00